sensor_id;sensor_type;location;lat;lon;timestamp;P1;durP1;ratioP1;P2;durP2;ratioP2
76459;SDS011;65299;46.084;18.762;2024-01-25T08:15:16;7.20;;;3.60;;
76459;SDS011;65299;46.084;18.762;2024-01-25T08:18:17;8.43;;;4.05;;
76459;SDS011;65299;46.084;18.762;2024-01-25T08:21:19;9.45;;;3.55;;
76459;SDS011;65299;46.084;18.762;2024-01-25T08:24:19;5.67;;;2.97;;
76459;SDS011;65299;46.084;18.762;2024-01-25T08:27:20;10.80;;;4.70;;
76459;SDS011;65299;46.084;18.762;2024-01-25T08:30:20;8.97;;;4.53;;
76459;SDS011;65299;46.084;18.762;2024-01-25T08:33:20;12.33;;;5.60;;
76459;SDS011;65299;46.084;18.762;2024-01-25T08:36:21;8.82;;;4.72;;
76459;SDS011;65299;46.084;18.762;2024-01-25T08:39:22;11.90;;;4.93;;
76459;SDS011;65299;46.084;18.762;2024-01-25T08:42:23;12.40;;;5.40;;
76459;SDS011;65299;46.084;18.762;2024-01-25T08:45:26;11.32;;;4.78;;
76459;SDS011;65299;46.084;18.762;2024-01-25T08:48:26;10.00;;;5.00;;
76459;SDS011;65299;46.084;18.762;2024-01-25T08:51:26;9.80;;;4.27;;
76459;SDS011;65299;46.084;18.762;2024-01-25T08:54:27;12.10;;;4.70;;
76459;SDS011;65299;46.084;18.762;2024-01-25T08:57:28;13.88;;;6.38;;
76459;SDS011;65299;46.084;18.762;2024-01-25T09:00:28;24.67;;;10.00;;
76459;SDS011;65299;46.084;18.762;2024-01-25T09:03:29;17.00;;;8.87;;
76459;SDS011;65299;46.084;18.762;2024-01-25T09:06:29;15.50;;;5.53;;
76459;SDS011;65299;46.084;18.762;2024-01-25T09:09:30;10.73;;;4.23;;
76459;SDS011;65299;46.084;18.762;2024-01-25T09:12:30;9.80;;;3.42;;
76459;SDS011;65299;46.084;18.762;2024-01-25T09:15:31;8.53;;;3.37;;
76459;SDS011;65299;46.084;18.762;2024-01-25T09:18:31;6.17;;;2.13;;
76459;SDS011;65299;46.084;18.762;2024-01-25T09:21:32;10.57;;;4.33;;
76459;SDS011;65299;46.084;18.762;2024-01-25T09:24:32;8.43;;;3.30;;
76459;SDS011;65299;46.084;18.762;2024-01-25T09:27:35;6.03;;;2.17;;
76459;SDS011;65299;46.084;18.762;2024-01-25T09:30:38;7.93;;;2.17;;
76459;SDS011;65299;46.084;18.762;2024-01-25T09:33:39;4.38;;;1.45;;
76459;SDS011;65299;46.084;18.762;2024-01-25T09:36:40;12.10;;;2.47;;
76459;SDS011;65299;46.084;18.762;2024-01-25T09:39:40;4.03;;;1.10;;
76459;SDS011;65299;46.084;18.762;2024-01-25T09:42:40;3.55;;;0.60;;
76459;SDS011;65299;46.084;18.762;2024-01-25T09:45:41;7.07;;;1.87;;
76459;SDS011;65299;46.084;18.762;2024-01-25T09:48:42;4.68;;;1.00;;
76459;SDS011;65299;46.084;18.762;2024-01-25T09:51:48;5.67;;;1.37;;
76459;SDS011;65299;46.084;18.762;2024-01-25T09:54:52;4.80;;;1.17;;
76459;SDS011;65299;46.084;18.762;2024-01-25T09:57:54;4.70;;;1.40;;
76459;SDS011;65299;46.084;18.762;2024-01-25T10:01:00;4.03;;;0.90;;
76459;SDS011;65299;46.084;18.762;2024-01-25T10:04:00;6.43;;;0.95;;
76459;SDS011;65299;46.084;18.762;2024-01-25T10:07:01;4.90;;;1.03;;
76459;SDS011;65299;46.084;18.762;2024-01-25T10:10:01;3.87;;;1.13;;
76459;SDS011;65299;46.084;18.762;2024-01-25T10:13:01;2.23;;;0.83;;
76459;SDS011;65299;46.084;18.762;2024-01-25T10:16:02;2.20;;;0.90;;
76459;SDS011;65299;46.084;18.762;2024-01-25T10:19:05;3.83;;;0.73;;
76459;SDS011;65299;46.084;18.762;2024-01-25T10:22:06;4.85;;;1.20;;
76459;SDS011;65299;46.084;18.762;2024-01-25T10:25:12;3.75;;;1.40;;
76459;SDS011;65299;46.084;18.762;2024-01-25T10:28:16;4.60;;;0.93;;
76459;SDS011;65299;46.084;18.762;2024-01-25T10:31:17;3.92;;;0.80;;
76459;SDS011;65299;46.084;18.762;2024-01-25T10:34:17;6.27;;;1.13;;
76459;SDS011;65299;46.084;18.762;2024-01-25T10:37:18;5.13;;;1.97;;
76459;SDS011;65299;46.084;18.762;2024-01-25T10:40:20;8.23;;;1.88;;
76459;SDS011;65299;46.084;18.762;2024-01-25T10:43:21;6.43;;;1.60;;
76459;SDS011;65299;46.084;18.762;2024-01-25T10:46:22;3.60;;;1.00;;
76459;SDS011;65299;46.084;18.762;2024-01-25T10:49:23;5.93;;;0.80;;
76459;SDS011;65299;46.084;18.762;2024-01-25T10:52:24;4.78;;;0.63;;
76459;SDS011;65299;46.084;18.762;2024-01-25T10:55:26;7.18;;;1.58;;
76459;SDS011;65299;46.084;18.762;2024-01-25T10:58:33;5.77;;;1.10;;
76459;SDS011;65299;46.084;18.762;2024-01-25T11:01:46;4.38;;;1.15;;
76459;SDS011;65299;46.084;18.762;2024-01-25T11:04:54;3.35;;;0.93;;
76459;SDS011;65299;46.084;18.762;2024-01-25T11:07:55;4.97;;;1.10;;
76459;SDS011;65299;46.084;18.762;2024-01-25T11:10:56;2.60;;;0.52;;
76459;SDS011;65299;46.084;18.762;2024-01-25T11:13:58;3.30;;;0.50;;
76459;SDS011;65299;46.084;18.762;2024-01-25T11:17:14;0.90;;;0.25;;
76459;SDS011;65299;46.084;18.762;2024-01-25T11:20:15;3.05;;;0.63;;
76459;SDS011;65299;46.084;18.762;2024-01-25T11:23:16;5.07;;;1.00;;
76459;SDS011;65299;46.084;18.762;2024-01-25T11:26:17;4.85;;;1.25;;
76459;SDS011;65299;46.084;18.762;2024-01-25T11:29:19;5.82;;;1.13;;
76459;SDS011;65299;46.084;18.762;2024-01-25T11:32:22;5.90;;;1.03;;
76459;SDS011;65299;46.084;18.762;2024-01-25T11:35:22;6.53;;;1.00;;
76459;SDS011;65299;46.084;18.762;2024-01-25T11:38:23;3.03;;;1.53;;
76459;SDS011;65299;46.084;18.762;2024-01-25T11:41:23;5.27;;;1.20;;
76459;SDS011;65299;46.084;18.762;2024-01-25T11:44:24;4.38;;;0.77;;
76459;SDS011;65299;46.084;18.762;2024-01-25T11:47:24;6.13;;;1.40;;
76459;SDS011;65299;46.084;18.762;2024-01-25T11:50:25;3.10;;;1.03;;
76459;SDS011;65299;46.084;18.762;2024-01-25T11:53:25;5.67;;;1.37;;
76459;SDS011;65299;46.084;18.762;2024-01-25T11:56:26;6.13;;;1.43;;
76459;SDS011;65299;46.084;18.762;2024-01-25T11:59:30;4.00;;;1.45;;
76459;SDS011;65299;46.084;18.762;2024-01-25T12:02:31;4.45;;;1.02;;
76459;SDS011;65299;46.084;18.762;2024-01-25T12:05:31;6.67;;;1.73;;
76459;SDS011;65299;46.084;18.762;2024-01-25T12:08:32;6.47;;;1.95;;
76459;SDS011;65299;46.084;18.762;2024-01-25T12:11:35;6.33;;;1.50;;
76459;SDS011;65299;46.084;18.762;2024-01-25T12:14:36;4.55;;;1.23;;
76459;SDS011;65299;46.084;18.762;2024-01-25T12:17:36;7.00;;;1.63;;
76459;SDS011;65299;46.084;18.762;2024-01-25T12:20:39;5.65;;;1.40;;
76459;SDS011;65299;46.084;18.762;2024-01-25T12:23:40;3.70;;;1.20;;
76459;SDS011;65299;46.084;18.762;2024-01-25T12:26:43;4.05;;;0.93;;
76459;SDS011;65299;46.084;18.762;2024-01-25T12:29:44;3.95;;;1.60;;
76459;SDS011;65299;46.084;18.762;2024-01-25T12:32:44;6.83;;;1.70;;
76459;SDS011;65299;46.084;18.762;2024-01-25T12:35:47;4.35;;;2.00;;
76459;SDS011;65299;46.084;18.762;2024-01-25T12:38:47;8.47;;;2.43;;
76459;SDS011;65299;46.084;18.762;2024-01-25T12:41:48;5.05;;;1.23;;
76459;SDS011;65299;46.084;18.762;2024-01-25T12:44:51;6.10;;;1.60;;
76459;SDS011;65299;46.084;18.762;2024-01-25T12:47:53;5.00;;;2.17;;
76459;SDS011;65299;46.084;18.762;2024-01-25T12:50:53;5.37;;;1.47;;
76459;SDS011;65299;46.084;18.762;2024-01-25T12:53:54;4.83;;;1.43;;
76459;SDS011;65299;46.084;18.762;2024-01-25T12:56:54;5.82;;;1.35;;
76459;SDS011;65299;46.084;18.762;2024-01-25T12:59:55;10.30;;;1.80;;
76459;SDS011;65299;46.084;18.762;2024-01-25T13:02:55;5.70;;;1.20;;
76459;SDS011;65299;46.084;18.762;2024-01-25T13:05:56;4.00;;;1.00;;
76459;SDS011;65299;46.084;18.762;2024-01-25T13:08:57;7.10;;;1.77;;
76459;SDS011;65299;46.084;18.762;2024-01-25T13:11:57;2.50;;;0.60;;
76459;SDS011;65299;46.084;18.762;2024-01-25T13:14:58;4.10;;;0.93;;
76459;SDS011;65299;46.084;18.762;2024-01-25T13:17:58;4.87;;;1.20;;
76459;SDS011;65299;46.084;18.762;2024-01-25T13:21:01;6.93;;;2.08;;
76459;SDS011;65299;46.084;18.762;2024-01-25T13:24:01;5.80;;;1.53;;
76459;SDS011;65299;46.084;18.762;2024-01-25T13:27:01;6.17;;;1.00;;
76459;SDS011;65299;46.084;18.762;2024-01-25T13:30:04;5.95;;;1.20;;
76459;SDS011;65299;46.084;18.762;2024-01-25T13:33:05;6.07;;;1.20;;
76459;SDS011;65299;46.084;18.762;2024-01-25T13:36:06;5.75;;;1.00;;
76459;SDS011;65299;46.084;18.762;2024-01-25T13:39:08;3.27;;;0.80;;
76459;SDS011;65299;46.084;18.762;2024-01-25T13:42:10;3.00;;;0.63;;
76459;SDS011;65299;46.084;18.762;2024-01-25T13:45:10;5.07;;;1.67;;
76459;SDS011;65299;46.084;18.762;2024-01-25T13:48:10;8.05;;;0.88;;
76459;SDS011;65299;46.084;18.762;2024-01-25T13:51:11;6.57;;;1.43;;
76459;SDS011;65299;46.084;18.762;2024-01-25T13:54:12;8.00;;;1.30;;
76459;SDS011;65299;46.084;18.762;2024-01-25T13:57:13;7.17;;;1.37;;
76459;SDS011;65299;46.084;18.762;2024-01-25T14:00:14;5.20;;;0.75;;
76459;SDS011;65299;46.084;18.762;2024-01-25T14:03:15;6.43;;;0.80;;
76459;SDS011;65299;46.084;18.762;2024-01-25T14:06:17;5.10;;;1.20;;
76459;SDS011;65299;46.084;18.762;2024-01-25T14:09:17;6.20;;;1.40;;
76459;SDS011;65299;46.084;18.762;2024-01-25T14:12:17;8.60;;;1.20;;
76459;SDS011;65299;46.084;18.762;2024-01-25T14:15:18;5.60;;;1.20;;
76459;SDS011;65299;46.084;18.762;2024-01-25T14:18:18;5.70;;;1.13;;
76459;SDS011;65299;46.084;18.762;2024-01-25T14:21:19;8.57;;;1.73;;
76459;SDS011;65299;46.084;18.762;2024-01-25T14:24:21;6.78;;;0.88;;
76459;SDS011;65299;46.084;18.762;2024-01-25T14:27:21;3.27;;;0.83;;
76459;SDS011;65299;46.084;18.762;2024-01-25T14:30:22;10.55;;;1.60;;
76459;SDS011;65299;46.084;18.762;2024-01-25T14:33:22;4.33;;;1.33;;
76459;SDS011;65299;46.084;18.762;2024-01-25T14:36:22;6.03;;;1.87;;
76459;SDS011;65299;46.084;18.762;2024-01-25T14:39:23;3.80;;;1.17;;
76459;SDS011;65299;46.084;18.762;2024-01-25T14:42:23;9.70;;;1.98;;
76459;SDS011;65299;46.084;18.762;2024-01-25T14:45:24;8.13;;;1.73;;
76459;SDS011;65299;46.084;18.762;2024-01-25T14:48:24;15.03;;;4.33;;
76459;SDS011;65299;46.084;18.762;2024-01-25T14:51:24;10.27;;;3.13;;
76459;SDS011;65299;46.084;18.762;2024-01-25T14:54:25;8.07;;;2.10;;
76459;SDS011;65299;46.084;18.762;2024-01-25T14:57:26;8.93;;;2.07;;
76459;SDS011;65299;46.084;18.762;2024-01-25T15:00:26;31.07;;;9.70;;
76459;SDS011;65299;46.084;18.762;2024-01-25T15:03:26;11.50;;;3.67;;
76459;SDS011;65299;46.084;18.762;2024-01-25T15:06:27;11.20;;;2.53;;
76459;SDS011;65299;46.084;18.762;2024-01-25T15:09:27;5.87;;;2.00;;
76459;SDS011;65299;46.084;18.762;2024-01-25T15:12:28;11.40;;;2.60;;
76459;SDS011;65299;46.084;18.762;2024-01-25T15:15:28;7.43;;;2.33;;
76459;SDS011;65299;46.084;18.762;2024-01-25T15:18:29;9.47;;;1.90;;
76459;SDS011;65299;46.084;18.762;2024-01-25T15:21:29;7.50;;;2.10;;
76459;SDS011;65299;46.084;18.762;2024-01-25T15:24:29;8.83;;;2.20;;
76459;SDS011;65299;46.084;18.762;2024-01-25T15:27:32;5.32;;;1.27;;
76459;SDS011;65299;46.084;18.762;2024-01-25T15:30:32;4.23;;;1.43;;
76459;SDS011;65299;46.084;18.762;2024-01-25T15:33:33;4.22;;;1.33;;
76459;SDS011;65299;46.084;18.762;2024-01-25T15:36:33;4.63;;;0.97;;
76459;SDS011;65299;46.084;18.762;2024-01-25T15:39:35;5.93;;;0.98;;
76459;SDS011;65299;46.084;18.762;2024-01-25T15:42:36;6.47;;;1.47;;
76459;SDS011;65299;46.084;18.762;2024-01-25T15:45:37;3.53;;;0.63;;
76459;SDS011;65299;46.084;18.762;2024-01-25T15:48:38;3.70;;;0.73;;
76459;SDS011;65299;46.084;18.762;2024-01-25T15:51:38;2.50;;;0.50;;
76459;SDS011;65299;46.084;18.762;2024-01-25T16:06:13;3.10;;;1.10;;
76459;SDS011;65299;46.084;18.762;2024-01-25T16:09:13;5.17;;;1.00;;
76459;SDS011;65299;46.084;18.762;2024-01-25T16:12:14;3.83;;;0.80;;
76459;SDS011;65299;46.084;18.762;2024-01-25T16:15:14;2.90;;;0.80;;
76459;SDS011;65299;46.084;18.762;2024-01-25T16:18:16;6.47;;;1.73;;
76459;SDS011;65299;46.084;18.762;2024-01-25T16:21:17;12.10;;;2.17;;
76459;SDS011;65299;46.084;18.762;2024-01-25T16:24:17;13.63;;;2.33;;
76459;SDS011;65299;46.084;18.762;2024-01-25T16:27:18;9.50;;;2.67;;
76459;SDS011;65299;46.084;18.762;2024-01-25T16:30:19;9.60;;;2.80;;
76459;SDS011;65299;46.084;18.762;2024-01-25T16:33:19;26.20;;;6.50;;
76459;SDS011;65299;46.084;18.762;2024-01-25T16:36:20;34.83;;;8.27;;
76459;SDS011;65299;46.084;18.762;2024-01-25T16:39:20;27.88;;;6.95;;
76459;SDS011;65299;46.084;18.762;2024-01-25T16:42:20;11.30;;;2.40;;
76459;SDS011;65299;46.084;18.762;2024-01-25T16:45:21;3.77;;;1.43;;
76459;SDS011;65299;46.084;18.762;2024-01-25T16:48:21;4.30;;;1.63;;
76459;SDS011;65299;46.084;18.762;2024-01-25T16:51:21;5.00;;;1.10;;
76459;SDS011;65299;46.084;18.762;2024-01-25T16:54:22;5.22;;;1.30;;
76459;SDS011;65299;46.084;18.762;2024-01-25T16:57:22;7.17;;;1.20;;
76459;SDS011;65299;46.084;18.762;2024-01-25T17:00:23;6.47;;;1.93;;
76459;SDS011;65299;46.084;18.762;2024-01-25T17:03:25;9.15;;;1.60;;
76459;SDS011;65299;46.084;18.762;2024-01-25T17:06:25;3.43;;;1.40;;
76459;SDS011;65299;46.084;18.762;2024-01-25T17:09:26;12.90;;;1.97;;
76459;SDS011;65299;46.084;18.762;2024-01-25T17:12:26;11.30;;;0.80;;
76459;SDS011;65299;46.084;18.762;2024-01-25T17:15:27;7.73;;;1.60;;
76459;SDS011;65299;46.084;18.762;2024-01-25T17:18:27;12.03;;;2.83;;
76459;SDS011;65299;46.084;18.762;2024-01-25T17:21:28;9.90;;;3.05;;
76459;SDS011;65299;46.084;18.762;2024-01-25T17:24:29;9.23;;;2.87;;
76459;SDS011;65299;46.084;18.762;2024-01-25T17:27:29;6.97;;;1.95;;
76459;SDS011;65299;46.084;18.762;2024-01-25T17:30:29;4.27;;;1.50;;
76459;SDS011;65299;46.084;18.762;2024-01-25T17:33:30;2.70;;;0.70;;
76459;SDS011;65299;46.084;18.762;2024-01-25T17:36:33;9.18;;;3.25;;
76459;SDS011;65299;46.084;18.762;2024-01-25T17:39:33;3.50;;;1.90;;
76459;SDS011;65299;46.084;18.762;2024-01-25T17:42:34;3.03;;;1.10;;
76459;SDS011;65299;46.084;18.762;2024-01-25T17:45:34;6.17;;;2.10;;
76459;SDS011;65299;46.084;18.762;2024-01-25T17:48:34;6.20;;;1.80;;
76459;SDS011;65299;46.084;18.762;2024-01-25T17:51:35;10.70;;;2.27;;
76459;SDS011;65299;46.084;18.762;2024-01-25T17:54:36;7.60;;;2.35;;
76459;SDS011;65299;46.084;18.762;2024-01-25T17:57:36;10.10;;;2.53;;
76459;SDS011;65299;46.084;18.762;2024-01-25T18:00:37;10.07;;;2.42;;
76459;SDS011;65299;46.084;18.762;2024-01-25T18:03:37;6.60;;;1.40;;
76459;SDS011;65299;46.084;18.762;2024-01-25T18:06:38;4.60;;;1.00;;
76459;SDS011;65299;46.084;18.762;2024-01-25T18:09:38;5.30;;;1.00;;
76459;SDS011;65299;46.084;18.762;2024-01-25T18:12:39;4.40;;;1.15;;
76459;SDS011;65299;46.084;18.762;2024-01-25T18:15:39;7.27;;;1.13;;
76459;SDS011;65299;46.084;18.762;2024-01-25T18:18:39;4.37;;;0.90;;
76459;SDS011;65299;46.084;18.762;2024-01-25T18:21:40;8.27;;;1.47;;
76459;SDS011;65299;46.084;18.762;2024-01-25T18:24:43;6.90;;;0.90;;
76459;SDS011;65299;46.084;18.762;2024-01-25T18:27:44;5.73;;;0.83;;
76459;SDS011;65299;46.084;18.762;2024-01-25T18:30:44;8.35;;;1.00;;
76459;SDS011;65299;46.084;18.762;2024-01-25T18:33:45;8.67;;;1.30;;
76459;SDS011;65299;46.084;18.762;2024-01-25T18:36:45;7.57;;;0.70;;
76459;SDS011;65299;46.084;18.762;2024-01-25T18:39:45;6.35;;;1.45;;
76459;SDS011;65299;46.084;18.762;2024-01-25T18:42:46;3.60;;;1.10;;
76459;SDS011;65299;46.084;18.762;2024-01-25T18:45:47;4.40;;;1.17;;
76459;SDS011;65299;46.084;18.762;2024-01-25T18:48:48;12.68;;;1.80;;
76459;SDS011;65299;46.084;18.762;2024-01-25T18:51:48;5.60;;;1.03;;
76459;SDS011;65299;46.084;18.762;2024-01-25T18:54:49;6.03;;;1.30;;
76459;SDS011;65299;46.084;18.762;2024-01-25T18:57:50;5.90;;;0.90;;
76459;SDS011;65299;46.084;18.762;2024-01-25T19:00:50;2.45;;;1.25;;
76459;SDS011;65299;46.084;18.762;2024-01-25T19:03:52;4.22;;;0.43;;
76459;SDS011;65299;46.084;18.762;2024-01-25T19:06:54;8.60;;;1.40;;
76459;SDS011;65299;46.084;18.762;2024-01-25T19:09:55;7.38;;;1.33;;
76459;SDS011;65299;46.084;18.762;2024-01-25T19:12:56;3.78;;;1.00;;
76459;SDS011;65299;46.084;18.762;2024-01-25T19:15:57;5.57;;;1.10;;
76459;SDS011;65299;46.084;18.762;2024-01-25T19:18:57;7.50;;;0.87;;
76459;SDS011;65299;46.084;18.762;2024-01-25T19:21:57;5.47;;;1.40;;
76459;SDS011;65299;46.084;18.762;2024-01-25T19:24:58;6.60;;;1.30;;
76459;SDS011;65299;46.084;18.762;2024-01-25T19:27:59;8.00;;;0.97;;
76459;SDS011;65299;46.084;18.762;2024-01-25T19:30:59;8.75;;;1.63;;
76459;SDS011;65299;46.084;18.762;2024-01-25T19:34:00;7.17;;;1.53;;
76459;SDS011;65299;46.084;18.762;2024-01-25T19:37:00;8.97;;;1.27;;
76459;SDS011;65299;46.084;18.762;2024-01-25T19:40:00;4.00;;;0.60;;
76459;SDS011;65299;46.084;18.762;2024-01-25T19:43:01;7.67;;;0.83;;
76459;SDS011;65299;46.084;18.762;2024-01-25T19:46:01;2.65;;;0.50;;
76459;SDS011;65299;46.084;18.762;2024-01-25T19:49:02;1.47;;;0.53;;
76459;SDS011;65299;46.084;18.762;2024-01-25T19:52:02;3.07;;;0.43;;
76459;SDS011;65299;46.084;18.762;2024-01-25T19:55:03;1.40;;;0.45;;
76459;SDS011;65299;46.084;18.762;2024-01-25T19:58:06;10.77;;;0.85;;
76459;SDS011;65299;46.084;18.762;2024-01-25T20:01:07;9.07;;;0.90;;
76459;SDS011;65299;46.084;18.762;2024-01-25T20:04:08;3.20;;;0.55;;
76459;SDS011;65299;46.084;18.762;2024-01-25T20:07:09;5.63;;;1.23;;
76459;SDS011;65299;46.084;18.762;2024-01-25T20:10:10;4.60;;;0.50;;
76459;SDS011;65299;46.084;18.762;2024-01-25T20:13:10;23.00;;;0.77;;
76459;SDS011;65299;46.084;18.762;2024-01-25T20:16:11;5.87;;;0.97;;
76459;SDS011;65299;46.084;18.762;2024-01-25T20:19:11;11.53;;;1.03;;
76459;SDS011;65299;46.084;18.762;2024-01-25T20:22:12;3.40;;;0.60;;
76459;SDS011;65299;46.084;18.762;2024-01-25T20:25:12;4.03;;;0.60;;
76459;SDS011;65299;46.084;18.762;2024-01-25T20:28:13;4.67;;;0.43;;
76459;SDS011;65299;46.084;18.762;2024-01-25T20:31:13;9.97;;;1.03;;
76459;SDS011;65299;46.084;18.762;2024-01-25T20:34:15;5.40;;;0.60;;
76459;SDS011;65299;46.084;18.762;2024-01-25T20:37:15;7.27;;;0.50;;
76459;SDS011;65299;46.084;18.762;2024-01-25T20:40:16;5.07;;;0.77;;
76459;SDS011;65299;46.084;18.762;2024-01-25T20:43:16;14.57;;;1.63;;
76459;SDS011;65299;46.084;18.762;2024-01-25T20:46:17;2.97;;;1.05;;
76459;SDS011;65299;46.084;18.762;2024-01-25T20:49:17;2.97;;;0.67;;
76459;SDS011;65299;46.084;18.762;2024-01-25T20:52:18;5.78;;;0.55;;
76459;SDS011;65299;46.084;18.762;2024-01-25T20:55:18;1.20;;;0.30;;
76459;SDS011;65299;46.084;18.762;2024-01-25T20:58:19;5.33;;;0.60;;
76459;SDS011;65299;46.084;18.762;2024-01-25T21:01:19;6.80;;;0.90;;
76459;SDS011;65299;46.084;18.762;2024-01-25T21:04:20;5.47;;;0.47;;
76459;SDS011;65299;46.084;18.762;2024-01-25T21:07:21;2.33;;;0.40;;
76459;SDS011;65299;46.084;18.762;2024-01-25T21:10:22;4.37;;;0.90;;
76459;SDS011;65299;46.084;18.762;2024-01-25T21:13:23;6.22;;;1.20;;
76459;SDS011;65299;46.084;18.762;2024-01-25T21:16:23;2.80;;;0.77;;
76459;SDS011;65299;46.084;18.762;2024-01-25T21:19:24;6.60;;;1.37;;
76459;SDS011;65299;46.084;18.762;2024-01-25T21:22:24;4.53;;;0.90;;
76459;SDS011;65299;46.084;18.762;2024-01-25T21:25:24;4.73;;;0.80;;
76459;SDS011;65299;46.084;18.762;2024-01-25T21:28:25;6.72;;;0.85;;
76459;SDS011;65299;46.084;18.762;2024-01-25T21:31:25;7.30;;;0.83;;
76459;SDS011;65299;46.084;18.762;2024-01-25T21:34:26;6.30;;;1.20;;
76459;SDS011;65299;46.084;18.762;2024-01-25T21:37:26;8.87;;;2.27;;
76459;SDS011;65299;46.084;18.762;2024-01-25T21:40:28;7.85;;;1.55;;
76459;SDS011;65299;46.084;18.762;2024-01-25T21:43:28;4.07;;;0.97;;
76459;SDS011;65299;46.084;18.762;2024-01-25T21:46:29;6.53;;;1.10;;
76459;SDS011;65299;46.084;18.762;2024-01-25T21:49:29;3.00;;;0.80;;
76459;SDS011;65299;46.084;18.762;2024-01-25T21:52:30;6.23;;;1.13;;
76459;SDS011;65299;46.084;18.762;2024-01-25T21:55:31;8.40;;;1.27;;
76459;SDS011;65299;46.084;18.762;2024-01-25T21:58:32;3.33;;;0.90;;
76459;SDS011;65299;46.084;18.762;2024-01-25T22:01:32;3.80;;;0.70;;
76459;SDS011;65299;46.084;18.762;2024-01-25T22:04:33;7.57;;;0.82;;
76459;SDS011;65299;46.084;18.762;2024-01-25T22:07:33;6.33;;;1.17;;
76459;SDS011;65299;46.084;18.762;2024-01-25T22:10:33;7.70;;;1.03;;
76459;SDS011;65299;46.084;18.762;2024-01-25T22:13:34;6.17;;;0.97;;
76459;SDS011;65299;46.084;18.762;2024-01-25T22:16:34;6.63;;;0.90;;
76459;SDS011;65299;46.084;18.762;2024-01-25T22:19:35;2.97;;;0.85;;
76459;SDS011;65299;46.084;18.762;2024-01-25T22:22:35;6.30;;;0.93;;
76459;SDS011;65299;46.084;18.762;2024-01-25T22:25:35;4.77;;;0.60;;
76459;SDS011;65299;46.084;18.762;2024-01-25T22:28:36;8.10;;;0.83;;
76459;SDS011;65299;46.084;18.762;2024-01-25T22:31:37;7.57;;;0.70;;
76459;SDS011;65299;46.084;18.762;2024-01-25T22:34:37;6.00;;;0.60;;
76459;SDS011;65299;46.084;18.762;2024-01-25T22:37:38;4.10;;;0.40;;
76459;SDS011;65299;46.084;18.762;2024-01-25T22:40:38;4.63;;;1.00;;
76459;SDS011;65299;46.084;18.762;2024-01-25T22:43:39;3.70;;;1.13;;
76459;SDS011;65299;46.084;18.762;2024-01-25T22:46:39;8.68;;;0.80;;
76459;SDS011;65299;46.084;18.762;2024-01-25T22:49:40;5.10;;;0.93;;
76459;SDS011;65299;46.084;18.762;2024-01-25T22:52:40;7.47;;;0.97;;
76459;SDS011;65299;46.084;18.762;2024-01-25T22:55:40;2.90;;;0.50;;
76459;SDS011;65299;46.084;18.762;2024-01-25T22:58:41;3.08;;;0.60;;
76459;SDS011;65299;46.084;18.762;2024-01-25T23:01:41;4.50;;;0.90;;
76459;SDS011;65299;46.084;18.762;2024-01-25T23:04:42;6.70;;;1.10;;
76459;SDS011;65299;46.084;18.762;2024-01-25T23:07:42;6.20;;;0.70;;
76459;SDS011;65299;46.084;18.762;2024-01-25T23:10:42;2.33;;;0.57;;
76459;SDS011;65299;46.084;18.762;2024-01-25T23:13:43;4.83;;;0.63;;
76459;SDS011;65299;46.084;18.762;2024-01-25T23:16:43;5.77;;;0.80;;
76459;SDS011;65299;46.084;18.762;2024-01-25T23:19:44;3.10;;;0.70;;
76459;SDS011;65299;46.084;18.762;2024-01-25T23:22:47;3.73;;;0.60;;
76459;SDS011;65299;46.084;18.762;2024-01-25T23:25:47;2.40;;;0.55;;
76459;SDS011;65299;46.084;18.762;2024-01-25T23:28:48;3.77;;;0.80;;
76459;SDS011;65299;46.084;18.762;2024-01-25T23:31:49;3.33;;;0.93;;
76459;SDS011;65299;46.084;18.762;2024-01-25T23:34:51;6.78;;;0.60;;
76459;SDS011;65299;46.084;18.762;2024-01-25T23:37:51;3.60;;;0.40;;
76459;SDS011;65299;46.084;18.762;2024-01-25T23:40:52;3.40;;;0.60;;
76459;SDS011;65299;46.084;18.762;2024-01-25T23:43:52;3.47;;;0.53;;
76459;SDS011;65299;46.084;18.762;2024-01-25T23:46:53;4.23;;;0.20;;
76459;SDS011;65299;46.084;18.762;2024-01-25T23:49:53;3.97;;;0.43;;
76459;SDS011;65299;46.084;18.762;2024-01-25T23:52:53;4.90;;;0.73;;
76459;SDS011;65299;46.084;18.762;2024-01-25T23:55:54;2.10;;;0.60;;
76459;SDS011;65299;46.084;18.762;2024-01-25T23:58:54;4.33;;;0.50;;
